Time,TemperatureF,DewpointF,PressureIn,WindDirection,WindDirectionDegrees,WindSpeedMPH,WindSpeedGustMPH,Humidity,HourlyPrecipIn,Conditions,Clouds,dailyrainin,SoftwareType,DateUTC
2013-02-26 00:05:00,30.9,26.0,30.02,ENE,78,7.0,14.0,83,0.00,,,0.00,weatherlink.com 1.10,2013-02-26 05:05:00,
2013-02-26 00:20:00,30.8,26.0,30.01,ENE,60,11.0,13.0,83,0.00,,,0.00,weatherlink.com 1.10,2013-02-26 05:20:00,
2013-02-26 00:35:00,31.0,26.0,30.00,ENE,64,7.0,15.0,81,0.00,,,0.00,weatherlink.com 1.10,2013-02-26 05:35:00,
2013-02-26 00:50:00,30.8,26.0,30.00,East,85,10.0,17.0,82,0.00,,,0.00,weatherlink.com 1.10,2013-02-26 05:50:00,
2013-02-26 01:05:00,30.8,26.0,30.00,East,81,7.0,15.0,82,0.00,,,0.00,weatherlink.com 1.10,2013-02-26 06:05:00,
2013-02-26 01:20:00,31.0,26.0,29.99,ENE,63,15.0,17.0,82,0.00,,,0.00,weatherlink.com 1.10,2013-02-26 06:20:00,
2013-02-26 01:35:00,31.1,26.0,29.98,ENE,74,8.0,15.0,82,0.00,,,0.00,weatherlink.com 1.10,2013-02-26 06:35:00,
2013-02-26 01:50:00,31.1,27.0,29.98,ENE,67,5.0,12.0,83,0.00,,,0.00,weatherlink.com 1.10,2013-02-26 06:50:00,
2013-02-26 02:06:00,31.2,26.0,29.97,ENE,78,9.0,16.0,82,0.00,,,0.00,weatherlink.com 1.10,2013-02-26 07:06:00,
2013-02-26 02:21:00,31.1,27.0,29.98,ESE,109,7.0,17.0,83,0.00,,,0.00,weatherlink.com 1.10,2013-02-26 07:21:00,
2013-02-26 02:36:00,31.1,27.0,29.97,ENE,62,9.0,17.0,83,0.00,,,0.00,weatherlink.com 1.10,2013-02-26 07:36:00,
2013-02-26 02:51:00,31.1,26.0,29.95,East,93,10.0,17.0,82,0.00,,,0.00,weatherlink.com 1.10,2013-02-26 07:51:00,
2013-02-26 03:06:00,31.2,27.0,29.94,ENE,67,12.0,18.0,83,0.00,,,0.00,weatherlink.com 1.10,2013-02-26 08:06:00,
2013-02-26 03:21:00,31.1,27.0,29.92,ENE,74,15.0,17.0,83,0.00,,,0.00,weatherlink.com 1.10,2013-02-26 08:21:00,
2013-02-26 03:36:00,31.2,27.0,29.90,ENE,62,15.0,19.0,83,0.00,,,0.00,weatherlink.com 1.10,2013-02-26 08:36:00,
2013-02-26 03:51:00,31.3,27.0,29.88,ENE,70,14.0,22.0,83,0.00,,,0.00,weatherlink.com 1.10,2013-02-26 08:51:00,
2013-02-26 04:06:00,31.3,27.0,29.88,East,79,9.0,18.0,83,0.00,,,0.00,weatherlink.com 1.10,2013-02-26 09:06:00,
2013-02-26 04:21:00,31.2,27.0,29.88,East,98,9.0,16.0,83,0.00,,,0.00,weatherlink.com 1.10,2013-02-26 09:21:00,
2013-02-26 04:36:00,31.3,27.0,29.89,ENE,73,11.0,15.0,83,0.00,,,0.00,weatherlink.com 1.10,2013-02-26 09:36:00,
2013-02-26 04:51:00,31.2,27.0,29.88,ENE,74,13.0,16.0,83,0.00,,,0.00,weatherlink.com 1.10,2013-02-26 09:51:00,
2013-02-26 05:06:00,31.3,27.0,29.86,East,82,14.0,18.0,83,0.00,,,0.00,weatherlink.com 1.10,2013-02-26 10:06:00,
2013-02-26 05:21:00,31.5,27.0,29.85,ENE,78,7.0,17.0,82,0.00,,,0.00,weatherlink.com 1.10,2013-02-26 10:21:00,
2013-02-26 05:36:00,31.6,27.0,29.84,East,96,14.0,21.0,82,0.00,,,0.00,weatherlink.com 1.10,2013-02-26 10:36:00,
2013-02-26 05:51:00,31.7,27.0,29.82,East,94,10.0,24.0,81,0.00,,,0.00,weatherlink.com 1.10,2013-02-26 10:51:00,
2013-02-26 06:06:00,31.9,27.0,29.81,East,90,11.0,23.0,81,0.00,,,0.00,weatherlink.com 1.10,2013-02-26 11:06:00,
2013-02-26 06:21:00,32.1,27.0,29.81,ENE,62,22.0,25.0,80,0.00,,,0.00,weatherlink.com 1.10,2013-02-26 11:21:00,
2013-02-26 06:36:00,32.2,26.0,29.80,ENE,63,14.0,28.0,79,0.00,,,0.00,weatherlink.com 1.10,2013-02-26 11:36:00,
2013-02-26 06:51:00,32.3,26.0,29.79,ENE,61,20.0,20.0,79,0.00,,,0.00,weatherlink.com 1.10,2013-02-26 11:51:00,
2013-02-26 07:06:00,32.4,26.0,29.79,ENE,78,13.0,24.0,78,0.00,,,0.00,weatherlink.com 1.10,2013-02-26 12:06:00,
2013-02-26 07:21:00,32.4,26.0,29.79,ENE,62,17.0,23.0,78,0.00,,,0.00,weatherlink.com 1.10,2013-02-26 12:21:00,
2013-02-26 07:36:00,32.3,26.0,29.80,ENE,58,20.0,24.0,79,0.00,,,0.00,weatherlink.com 1.10,2013-02-26 12:36:00,
2013-02-26 07:51:00,32.3,26.0,29.80,SE,138,16.0,24.0,79,0.00,,,0.00,weatherlink.com 1.10,2013-02-26 12:51:00,
2013-02-26 08:06:00,32.3,26.0,29.81,East,80,22.0,22.0,79,0.00,,,0.00,weatherlink.com 1.10,2013-02-26 13:06:00,
2013-02-26 08:21:00,32.3,26.0,29.80,NE,52,12.0,22.0,79,0.00,,,0.00,weatherlink.com 1.10,2013-02-26 13:21:00,
2013-02-26 08:36:00,32.2,27.0,29.79,ENE,66,17.0,18.0,80,0.00,,,0.00,weatherlink.com 1.10,2013-02-26 13:36:00,
2013-02-26 08:52:00,32.3,27.0,29.77,ENE,64,11.0,23.0,80,0.00,,,0.00,weatherlink.com 1.10,2013-02-26 13:52:00,
2013-02-26 09:07:00,32.1,27.0,29.76,ENE,75,12.0,21.0,82,0.00,,,0.00,weatherlink.com 1.10,2013-02-26 14:07:00,
2013-02-26 09:22:00,32.1,28.0,29.73,ENE,77,10.0,21.0,85,0.01,,,0.01,weatherlink.com 1.10,2013-02-26 14:22:00,
2013-02-26 09:37:00,32.0,28.0,29.71,ENE,66,13.0,18.0,86,0.01,,,0.01,weatherlink.com 1.10,2013-02-26 14:37:00,
2013-02-26 09:52:00,32.1,29.0,29.70,ENE,78,11.0,18.0,87,0.01,,,0.01,weatherlink.com 1.10,2013-02-26 14:52:00,
2013-02-26 10:07:00,32.2,29.0,29.69,ENE,63,10.0,17.0,87,0.01,,,0.01,weatherlink.com 1.10,2013-02-26 15:07:00,
2013-02-26 10:22:00,32.2,29.0,29.68,ESE,112,10.0,17.0,88,0.00,,,0.01,weatherlink.com 1.10,2013-02-26 15:22:00,
2013-02-26 10:37:00,32.4,29.0,29.67,East,94,13.0,21.0,88,0.00,,,0.01,weatherlink.com 1.10,2013-02-26 15:37:00,
2013-02-26 10:52:00,32.4,30.0,29.65,ENE,78,0.0,14.0,90,0.00,,,0.01,weatherlink.com 1.10,2013-02-26 15:52:00,
2013-02-26 11:07:00,32.3,30.0,29.62,ENE,69,0.0,0.0,90,0.00,,,0.01,weatherlink.com 1.10,2013-02-26 16:07:00,
2013-02-26 11:22:00,32.5,30.0,29.60,ENE,64,0.0,0.0,90,0.00,,,0.01,weatherlink.com 1.10,2013-02-26 16:22:00,
2013-02-26 11:37:00,32.7,30.0,29.59,ENE,71,0.0,0.0,90,0.00,,,0.01,weatherlink.com 1.10,2013-02-26 16:37:00,
2013-02-26 11:52:00,33.0,31.0,29.58,East,84,0.0,0.0,91,0.00,,,0.01,weatherlink.com 1.10,2013-02-26 16:52:00,
2013-02-26 12:07:00,33.1,31.0,29.57,East,91,0.0,0.0,91,0.00,,,0.01,weatherlink.com 1.10,2013-02-26 17:07:00,
2013-02-26 12:22:00,33.1,31.0,29.56,ENE,76,0.0,0.0,92,0.00,,,0.01,weatherlink.com 1.10,2013-02-26 17:22:00,
2013-02-26 12:37:00,33.1,31.0,29.57,ENE,68,0.0,0.0,93,0.00,,,0.01,weatherlink.com 1.10,2013-02-26 17:37:00,
2013-02-26 12:52:00,33.2,32.0,29.57,ESE,108,0.0,0.0,94,0.00,,,0.01,weatherlink.com 1.10,2013-02-26 17:52:00,
2013-02-26 13:07:00,33.2,32.0,29.56,East,90,0.0,0.0,94,0.00,,,0.01,weatherlink.com 1.10,2013-02-26 18:07:00,
2013-02-26 13:22:00,33.3,32.0,29.55,East,96,0.0,0.0,95,0.00,,,0.01,weatherlink.com 1.10,2013-02-26 18:22:00,
2013-02-26 13:37:00,33.4,32.0,29.54,East,98,0.0,0.0,95,0.00,,,0.01,weatherlink.com 1.10,2013-02-26 18:37:00,
2013-02-26 13:52:00,33.5,32.0,29.53,East,89,0.0,0.0,95,0.00,,,0.01,weatherlink.com 1.10,2013-02-26 18:52:00,
2013-02-26 14:07:00,33.5,32.0,29.52,East,96,0.0,0.0,95,0.00,,,0.01,weatherlink.com 1.10,2013-02-26 19:07:00,
2013-02-26 14:37:00,33.6,32.0,29.50,ENE,70,13.0,21.0,95,0.00,,,0.01,weatherlink.com 1.10,2013-02-26 19:37:00,
2013-02-26 14:52:00,33.7,33.0,29.49,East,86,11.0,24.0,95,0.00,,,0.01,weatherlink.com 1.10,2013-02-26 19:52:00,
2013-02-26 15:07:00,33.7,33.0,29.49,East,79,14.0,23.0,95,0.00,,,0.01,weatherlink.com 1.10,2013-02-26 20:07:00,
2013-02-26 15:22:00,33.6,32.0,29.49,East,94,18.0,21.0,95,0.00,,,0.01,weatherlink.com 1.10,2013-02-26 20:22:00,
2013-02-26 15:37:00,33.5,32.0,29.49,East,91,14.0,24.0,95,0.00,,,0.01,weatherlink.com 1.10,2013-02-26 20:37:00,
2013-02-26 15:52:00,33.5,32.0,29.49,East,93,18.0,23.0,95,0.00,,,0.01,weatherlink.com 1.10,2013-02-26 20:52:00,
2013-02-26 16:07:00,33.5,32.0,29.48,ESE,103,11.0,24.0,95,0.00,,,0.01,weatherlink.com 1.10,2013-02-26 21:07:00,
2013-02-26 16:23:00,33.5,32.0,29.48,East,84,16.0,19.0,95,0.01,,,0.02,weatherlink.com 1.10,2013-02-26 21:23:00,
2013-02-26 16:38:00,33.6,33.0,29.47,East,80,14.0,24.0,96,0.03,,,0.04,weatherlink.com 1.10,2013-02-26 21:38:00,
2013-02-26 16:53:00,33.7,33.0,29.47,East,82,8.0,22.0,95,0.05,,,0.06,weatherlink.com 1.10,2013-02-26 21:53:00,
2013-02-26 17:08:00,33.7,33.0,29.47,East,98,8.0,18.0,95,0.05,,,0.06,weatherlink.com 1.10,2013-02-26 22:08:00,
2013-02-26 17:23:00,33.8,33.0,29.47,East,86,18.0,23.0,95,0.06,,,0.08,weatherlink.com 1.10,2013-02-26 22:23:00,
2013-02-26 17:38:00,33.8,33.0,29.47,East,83,15.0,21.0,95,0.07,,,0.11,weatherlink.com 1.10,2013-02-26 22:38:00,
2013-02-26 17:53:00,33.8,33.0,29.47,East,84,7.0,17.0,95,0.07,,,0.13,weatherlink.com 1.10,2013-02-26 22:53:00,
2013-02-26 18:08:00,33.9,33.0,29.46,East,88,17.0,21.0,95,0.08,,,0.14,weatherlink.com 1.10,2013-02-26 23:08:00,
2013-02-26 18:23:00,34.0,33.0,29.46,East,84,9.0,17.0,95,0.08,,,0.16,weatherlink.com 1.10,2013-02-26 23:23:00,
2013-02-26 18:38:00,34.1,33.0,29.46,ENE,72,10.0,19.0,95,0.06,,,0.17,weatherlink.com 1.10,2013-02-26 23:38:00,
2013-02-26 18:53:00,34.2,33.0,29.47,East,91,11.0,21.0,95,0.04,,,0.17,weatherlink.com 1.10,2013-02-26 23:53:00,
2013-02-26 19:08:00,34.2,33.0,29.47,ENE,75,13.0,18.0,95,0.03,,,0.17,weatherlink.com 1.10,2013-02-27 00:08:00,
2013-02-26 19:24:00,34.2,33.0,29.47,East,83,7.0,16.0,95,0.01,,,0.17,weatherlink.com 1.10,2013-02-27 00:24:00,
2013-02-26 19:38:00,34.2,33.0,29.47,East,85,14.0,14.0,95,0.00,,,0.17,weatherlink.com 1.10,2013-02-27 00:38:00,
2013-02-26 19:53:00,34.2,33.0,29.46,ENE,73,7.0,13.0,96,0.01,,,0.18,weatherlink.com 1.10,2013-02-27 00:53:00,
2013-02-26 20:08:00,34.2,33.0,29.46,East,88,10.0,12.0,96,0.01,,,0.18,weatherlink.com 1.10,2013-02-27 01:08:00,
2013-02-26 20:23:00,34.2,33.0,29.46,ENE,58,8.0,12.0,96,0.01,,,0.18,weatherlink.com 1.10,2013-02-27 01:23:00,
2013-02-26 20:38:00,34.2,33.0,29.46,ENE,59,4.0,12.0,96,0.00,,,0.18,weatherlink.com 1.10,2013-02-27 01:38:00,
2013-02-26 20:53:00,34.2,33.0,29.46,NE,52,5.0,10.0,96,0.00,,,0.18,weatherlink.com 1.10,2013-02-27 01:53:00,
2013-02-26 21:08:00,34.2,33.0,29.46,ENE,76,10.0,11.0,96,0.01,,,0.19,weatherlink.com 1.10,2013-02-27 02:08:00,
2013-02-26 21:23:00,34.2,33.0,29.46,ENE,69,5.0,10.0,96,0.01,,,0.19,weatherlink.com 1.10,2013-02-27 02:23:00,
2013-02-26 21:38:00,34.1,33.0,29.45,ENE,64,8.0,9.0,96,0.01,,,0.19,weatherlink.com 1.10,2013-02-27 02:38:00,
2013-02-26 21:53:00,34.1,33.0,29.45,ENE,64,5.0,7.0,96,0.01,,,0.19,weatherlink.com 1.10,2013-02-27 02:53:00,
2013-02-26 22:08:00,34.1,33.0,29.45,ENE,63,4.0,6.0,96,0.00,,,0.19,weatherlink.com 1.10,2013-02-27 03:08:00,
2013-02-26 22:23:00,34.1,33.0,29.45,ENE,71,3.0,7.0,96,0.00,,,0.19,weatherlink.com 1.10,2013-02-27 03:23:00,
2013-02-26 22:38:00,34.1,33.0,29.45,ENE,66,4.0,7.0,96,0.00,,,0.19,weatherlink.com 1.10,2013-02-27 03:38:00,
2013-02-26 22:53:00,33.9,33.0,29.45,ENE,68,1.0,7.0,96,0.00,,,0.19,weatherlink.com 1.10,2013-02-27 03:53:00,
2013-02-26 23:08:00,33.7,33.0,29.44,NE,46,3.0,5.0,96,0.00,,,0.19,weatherlink.com 1.10,2013-02-27 04:08:00,
2013-02-26 23:23:00,33.6,33.0,29.45,NE,40,0.0,3.0,97,0.00,,,0.19,weatherlink.com 1.10,2013-02-27 04:23:00,
2013-02-26 23:38:00,33.5,33.0,29.44,NE,40,0.0,2.0,96,0.00,,,0.19,weatherlink.com 1.10,2013-02-27 04:38:00,
2013-02-26 23:53:00,33.4,32.0,29.45,NE,40,0.0,0.0,96,0.00,,,0.19,weatherlink.com 1.10,2013-02-27 04:53:00,